Terminal Aerodrome Forecast
Issued by NWS

Home | Current Version | Previous Version | Text Only | Print | Product List | Glossary On
Versions: 1 2 3 4 5 6 7 8 9 10 11 12 13 14 15 16
803
FTUS43 KGRB 180539
TAFAUW
TAF
KAUW 180539Z 1806/1906 25005KT 1/2SM FG OVC002
     FM181500 22008KT 2SM BR BKN006
     FM181800 22009KT P6SM SCT012
     FM182300 23005KT P6SM SKC=

USA.gov is the U.S. government's official web portal to all federal, state and local government web resources and services.